Qualifying - Green
Course: Road America · 2026-09-05 01:30PM
Weather Conditions
Temp 74°F
(64–74°F range)
Temp type NORMAL
Track DAMP
Precip 0.1 mm (DRIZZLE)
Humidity 84%
Wind 13 km/h
Cloud 70%
OVERALL
BY CLASS
| POS | # | NAME | CLASS | BEST LAP | GAP | INTERVAL | LAPS |
|---|---|---|---|---|---|---|---|
| 1 | 320 | GREG ROJIK | SP3 | 2:31.558 | - | - | 6 |
| 2 | 92 | DOUG CROSSMAN | G | 2:32.627 | 1.069 | 1.069 | 5 |
| 3 | 515 | RICHARD EGLESTON | H | 2:34.492 | 2.934 | 1.865 | 2 |
| 4 | 222 | CHARLIE REITER | SP3 | 2:34.740 | 3.182 | 0.248 | 7 |
| 5 | 323 | ROBERT BOXALL | SP3 | 2:34.769 | 3.211 | 0.029 | 8 |
| 6 | 441 | SHAWN O'BRIEN | SPB | 2:35.493 | 3.935 | 0.724 | 6 |
| 7 | 771 | ROB WALKER | SPB | 2:36.050 | 4.492 | 0.557 | 5 |
| 8 | 18 | ROBERT LINDER | SP3 | 2:36.996 | 5.438 | 0.946 | 5 |
| 9 | 106 | DALLAS CARROLL | SPB | 2:37.377 | 5.819 | 0.381 | 3 |
| 10 | 10 | AUSTIN ROLAND | SPB | 2:37.405 | 5.847 | 0.028 | 6 |
| 11 | 07 | TIM SMITH | 911CUP | 2:37.873 | 6.315 | 0.468 | 3 |
| 12 | 372 | CHRIS MacDUFF | SPB | 2:38.416 | 6.858 | 0.543 | 5 |
| 13 | 165 | TAMER ELBAGA | SPB | 2:39.705 | 8.147 | 1.289 | 7 |
| 14 | 941 | JOHN MILLER | I | 2:40.220 | 8.662 | 0.515 | 7 |
| 15 | 896 | TANNER MARKUT | SP3 | 2:40.267 | 8.709 | 0.047 | 3 |
| 16 | 598 | PHILIP MITCHELL | SPB | 2:43.651 | 12.093 | 3.384 | 6 |
| 17 | 89 | JOHN BIRK | SPB | 2:44.679 | 13.121 | 1.028 | 7 |
| 18 | 622 | STAN WENGER | SPB | 2:45.886 | 14.328 | 1.207 | 4 |
| 19 | 86 | ANDREW FLORIG | SP3 | 2:47.572 | 16.014 | 1.686 | 7 |
| 20 | 50 | GLEN LARSON | D | 2:48.572 | 17.014 | 1.000 | 5 |
| 21 | 47 | ROBERTO FRAGOMENI | SP3 | 2:51.335 | 19.777 | 2.763 | 6 |
| 22 | 11 | TOMAS KONVALINA | SP1 | 2:52.042 | 20.484 | 0.707 | 6 |
| 23 | 56 | ALBERT SALVADOR | SP1 | 2:53.907 | 22.349 | 1.865 | 4 |
| 24 | 2 | BOB VAN ZELST | G | 3:12.992 | 41.434 | 19.085 | 1 |
Pole Position